Time;durP1;ratioP1;P1;durP2;ratioP2;P2;SDS_P1;SDS_P2;PMS_P1;PMS_P2;Temp;Humidity;BMP_temperature;BMP_pressure;BME280_temperature;BME280_humidity;BME280_pressure;Samples;Min_cycle;Max_cycle;Signal;HPM_P1;HPM_P2
2023/09/23 00:01:25;;;;;;;1.27;0.90;;;;;;;;;;4938707;29;20228;-72
2023/09/23 00:04:34;;;;;;;5.80;0.83;;;;;;;;;;4927911;29;20188;-72
2023/09/23 00:07:39;;;;;;;1.33;0.70;;;;;;;;;;4938694;29;20196;-72
2023/09/23 00:10:44;;;;;;;1.67;0.70;;;;;;;;;;4939528;29;20625;-72
2023/09/23 00:13:48;;;;;;;0.97;0.63;;;;;;;;;;4938193;29;20668;-72
2023/09/23 00:16:52;;;;;;;1.63;0.73;;;;;;;;;;4927546;29;20192;-72
2023/09/23 00:19:57;;;;;;;2.97;0.63;;;;;;;;;;4939093;29;20216;-72
2023/09/23 00:23:02;;;;;;;2.90;0.70;;;;;;;;;;4939131;29;20564;-72
2023/09/23 00:26:11;;;;;;;1.90;0.67;;;;;;;;;;4939198;29;20648;-72
2023/09/23 00:29:17;;;;;;;1.10;0.73;;;;;;;;;;4939297;29;20624;-73
2023/09/23 00:32:21;;;;;;;1.07;0.70;;;;;;;;;;4927234;29;20220;-72
2023/09/23 00:35:25;;;;;;;1.90;0.70;;;;;;;;;;4938119;29;20184;-72
2023/09/23 00:38:29;;;;;;;1.97;0.77;;;;;;;;;;4937742;29;20561;-72
2023/09/23 00:41:33;;;;;;;1.13;1.00;;;;;;;;;;4937930;29;20215;-73
2023/09/23 00:44:40;;;;;;;4.30;0.80;;;;;;;;;;4937989;29;20652;-73
2023/09/23 00:47:45;;;;;;;1.57;1.07;;;;;;;;;;4937963;29;20537;-72
2023/09/23 00:50:53;;;;;;;1.20;0.77;;;;;;;;;;4937831;29;20184;-72
2023/09/23 00:54:01;;;;;;;1.30;1.00;;;;;;;;;;4937855;29;20188;-72
2023/09/23 00:57:06;;;;;;;2.17;0.83;;;;;;;;;;4926626;29;20188;-72
2023/09/23 01:00:23;;;;;;;2.20;0.90;;;;;;;;;;4937330;29;20557;-72
2023/09/23 01:03:30;;;;;;;1.10;0.90;;;;;;;;;;4938189;29;20181;-73
2023/09/23 01:06:35;;;;;;;1.50;0.90;;;;;;;;;;4926814;29;20184;-73
2023/09/23 01:09:40;;;;;;;1.40;0.70;;;;;;;;;;4937223;29;20184;-72
2023/09/23 01:12:46;;;;;;;1.83;1.00;;;;;;;;;;4937087;29;20227;-72
2023/09/23 01:15:51;;;;;;;1.57;0.90;;;;;;;;;;4938440;29;20188;-72
2023/09/23 01:18:56;;;;;;;1.13;0.80;;;;;;;;;;4938036;29;20707;-72
2023/09/23 01:22:01;;;;;;;2.53;1.00;;;;;;;;;;4937554;29;20224;-72
2023/09/23 01:25:06;;;;;;;1.20;0.97;;;;;;;;;;4937722;29;20188;-72
2023/09/23 01:28:13;;;;;;;2.77;1.07;;;;;;;;;;4937485;29;20188;-72
2023/09/23 01:31:21;;;;;;;1.83;1.10;;;;;;;;;;4937293;29;20180;-72
2023/09/23 01:34:28;;;;;;;2.83;0.87;;;;;;;;;;4936821;29;20184;-73
2023/09/23 01:37:34;;;;;;;1.93;1.20;;;;;;;;;;4938331;29;20192;-71
2023/09/23 01:40:43;;;;;;;3.13;1.20;;;;;;;;;;4936845;29;20220;-72
2023/09/23 01:43:48;;;;;;;4.17;1.00;;;;;;;;;;4937165;29;20510;-72
2023/09/23 01:46:52;;;;;;;1.20;1.10;;;;;;;;;;4926029;29;20184;-72
2023/09/23 01:49:59;;;;;;;1.20;0.93;;;;;;;;;;4936632;29;20180;-72
2023/09/23 01:53:04;;;;;;;1.53;1.07;;;;;;;;;;4936464;29;20223;-72
2023/09/23 01:56:09;;;;;;;2.50;0.93;;;;;;;;;;4936358;29;20189;-72
2023/09/23 01:59:13;;;;;;;1.60;1.00;;;;;;;;;;4936552;29;20212;-72
2023/09/23 02:02:17;;;;;;;1.33;0.90;;;;;;;;;;4936282;29;20216;-72
2023/09/23 02:05:27;;;;;;;4.97;1.10;;;;;;;;;;4925423;29;20188;-72
2023/09/23 02:08:31;;;;;;;1.90;0.90;;;;;;;;;;4936654;29;20193;-72
2023/09/23 02:11:38;;;;;;;1.53;0.97;;;;;;;;;;4936034;29;20216;-72
2023/09/23 02:14:42;;;;;;;4.43;1.30;;;;;;;;;;4936665;29;20518;-72
2023/09/23 02:17:47;;;;;;;1.10;0.87;;;;;;;;;;4936431;29;20180;-72
2023/09/23 02:20:51;;;;;;;2.60;1.00;;;;;;;;;;4936200;29;20212;-72
2023/09/23 02:23:55;;;;;;;1.70;1.00;;;;;;;;;;4936487;29;20188;-72
2023/09/23 02:27:00;;;;;;;2.30;0.90;;;;;;;;;;4936685;29;20192;-72
2023/09/23 02:30:05;;;;;;;2.97;1.23;;;;;;;;;;4937072;29;20184;-72
2023/09/23 02:33:09;;;;;;;2.67;1.00;;;;;;;;;;4936205;29;20749;-72
2023/09/23 02:36:13;;;;;;;2.33;1.90;;;;;;;;;;4935912;29;20180;-72
2023/09/23 02:39:21;;;;;;;1.17;1.07;;;;;;;;;;4935866;29;20223;-72
2023/09/23 02:42:25;;;;;;;1.50;1.00;;;;;;;;;;4935593;29;20219;-72
2023/09/23 02:45:31;;;;;;;2.17;1.23;;;;;;;;;;4936579;29;20624;-72
2023/09/23 02:48:36;;;;;;;3.97;1.07;;;;;;;;;;4935818;29;20184;-72
2023/09/23 02:51:44;;;;;;;1.90;1.23;;;;;;;;;;4936513;29;20219;-72
2023/09/23 02:54:50;;;;;;;2.60;1.03;;;;;;;;;;4935959;29;20657;-72
2023/09/23 02:57:55;;;;;;;1.67;1.00;;;;;;;;;;4935848;29;20181;-72
2023/09/23 03:01:01;;;;;;;2.80;0.90;;;;;;;;;;4935797;29;20216;-72
2023/09/23 03:04:16;;;;;;;1.93;1.17;;;;;;;;;;4936403;29;20525;-72
2023/09/23 03:07:20;;;;;;;2.47;1.23;;;;;;;;;;4935180;29;20181;-72
2023/09/23 03:10:32;;;;;;;2.00;1.10;;;;;;;;;;4924671;29;20180;-72
2023/09/23 03:13:36;;;;;;;1.30;1.03;;;;;;;;;;4935209;29;20207;-72
2023/09/23 03:16:44;;;;;;;2.53;1.63;;;;;;;;;;4935973;29;20180;-72
2023/09/23 03:19:51;;;;;;;1.63;1.13;;;;;;;;;;4935140;29;20212;-72
2023/09/23 03:22:57;;;;;;;3.63;1.33;;;;;;;;;;4936085;29;20215;-72
2023/09/23 03:26:01;;;;;;;2.93;1.20;;;;;;;;;;4935651;29;20632;-72
2023/09/23 03:29:06;;;;;;;2.83;1.30;;;;;;;;;;4935344;29;20180;-72
2023/09/23 03:32:10;;;;;;;1.63;1.00;;;;;;;;;;4935300;29;20696;-72
2023/09/23 03:35:23;;;;;;;2.50;1.50;;;;;;;;;;4936340;29;20180;-72
2023/09/23 03:38:32;;;;;;;2.17;1.40;;;;;;;;;;4935006;29;20184;-72
2023/09/23 03:41:37;;;;;;;3.37;1.43;;;;;;;;;;4934905;29;20220;-72
2023/09/23 03:44:41;;;;;;;3.60;1.70;;;;;;;;;;4924280;29;20184;-72
2023/09/23 03:47:46;;;;;;;3.83;1.60;;;;;;;;;;4935220;29;20185;-72
2023/09/23 03:50:52;;;;;;;3.87;1.77;;;;;;;;;;4935156;29;20180;-72
2023/09/23 03:53:56;;;;;;;2.27;1.43;;;;;;;;;;4935138;29;20188;-72
2023/09/23 03:57:00;;;;;;;3.40;1.67;;;;;;;;;;4934896;29;20184;-72
2023/09/23 04:00:16;;;;;;;2.20;1.60;;;;;;;;;;4935495;29;20212;-72
2023/09/23 04:03:21;;;;;;;4.07;1.47;;;;;;;;;;4935491;29;20212;-72
2023/09/23 04:06:25;;;;;;;5.20;1.43;;;;;;;;;;4935747;29;20189;-72
2023/09/23 04:09:32;;;;;;;1.73;1.43;;;;;;;;;;4935046;29;20188;-72
2023/09/23 04:12:37;;;;;;;2.10;1.60;;;;;;;;;;4935411;29;20224;-72
2023/09/23 04:15:41;;;;;;;3.30;1.70;;;;;;;;;;4936182;29;20188;-72
2023/09/23 04:18:46;;;;;;;3.23;1.40;;;;;;;;;;4935706;29;20193;-72
2023/09/23 04:21:50;;;;;;;2.63;1.37;;;;;;;;;;4938338;29;20216;-72
2023/09/23 04:24:54;;;;;;;3.03;1.90;;;;;;;;;;4938668;29;20180;-72
2023/09/23 04:27:58;;;;;;;1.67;1.50;;;;;;;;;;4938813;29;20188;-72
2023/09/23 04:31:03;;;;;;;3.87;1.63;;;;;;;;;;4939043;29;20521;-72
2023/09/23 04:34:07;;;;;;;6.37;1.70;;;;;;;;;;4938871;29;20184;-72
2023/09/23 04:37:12;;;;;;;1.90;1.50;;;;;;;;;;4939202;29;20180;-72
2023/09/23 04:40:18;;;;;;;2.07;1.73;;;;;;;;;;4937617;29;20207;-72
2023/09/23 04:43:25;;;;;;;5.53;1.80;;;;;;;;;;4938380;29;20215;-72
2023/09/23 04:46:32;;;;;;;2.20;1.70;;;;;;;;;;4938697;29;20184;-72
2023/09/23 04:49:37;;;;;;;5.03;1.80;;;;;;;;;;4938334;29;20180;-72
2023/09/23 04:52:42;;;;;;;3.20;2.13;;;;;;;;;;4938207;29;20707;-72
2023/09/23 04:55:46;;;;;;;5.00;2.10;;;;;;;;;;4938473;29;20180;-72
2023/09/23 04:58:52;;;;;;;2.90;2.00;;;;;;;;;;4938474;29;20526;-72
2023/09/23 05:01:56;;;;;;;2.67;2.10;;;;;;;;;;4938252;29;20212;-73
2023/09/23 05:05:00;;;;;;;4.00;2.40;;;;;;;;;;4938202;29;20196;-72
2023/09/23 05:08:05;;;;;;;4.17;2.20;;;;;;;;;;4938221;29;20184;-73
2023/09/23 05:11:09;;;;;;;2.17;1.97;;;;;;;;;;4937846;29;20176;-74
2023/09/23 05:14:17;;;;;;;3.87;1.67;;;;;;;;;;4937866;29;20177;-73
2023/09/23 05:17:22;;;;;;;6.70;2.10;;;;;;;;;;4937898;29;20181;-74
2023/09/23 05:20:28;;;;;;;3.10;1.67;;;;;;;;;;4938003;29;20561;-73
2023/09/23 05:23:32;;;;;;;2.93;1.67;;;;;;;;;;4937814;29;20644;-72
2023/09/23 05:26:37;;;;;;;6.87;2.00;;;;;;;;;;4937653;29;20184;-72
2023/09/23 05:29:43;;;;;;;4.70;1.77;;;;;;;;;;4938250;29;20637;-73
2023/09/23 05:32:47;;;;;;;1.93;1.70;;;;;;;;;;4937608;29;20691;-73
2023/09/23 05:35:54;;;;;;;1.97;1.70;;;;;;;;;;4937833;29;20184;-72
2023/09/23 05:38:59;;;;;;;32.00;16.13;;;;;;;;;;4926385;29;20180;-72
2023/09/23 05:42:03;;;;;;;11.07;6.13;;;;;;;;;;4937348;29;20603;-73
2023/09/23 05:45:08;;;;;;;3.77;2.20;;;;;;;;;;4937666;29;20195;-73
2023/09/23 05:48:12;;;;;;;3.20;2.37;;;;;;;;;;4937620;29;20624;-72
2023/09/23 05:51:16;;;;;;;2.43;1.67;;;;;;;;;;4937475;29;20517;-73
2023/09/23 05:54:22;;;;;;;3.37;1.80;;;;;;;;;;4937512;29;20616;-71
2023/09/23 05:57:26;;;;;;;2.30;2.00;;;;;;;;;;4937240;29;20525;-72
2023/09/23 06:00:31;;;;;;;3.30;2.17;;;;;;;;;;4936817;29;20220;-72
2023/09/23 06:03:36;;;;;;;5.23;1.90;;;;;;;;;;4937874;29;20184;-72
2023/09/23 06:06:40;;;;;;;1.97;1.77;;;;;;;;;;4937070;29;20196;-73
2023/09/23 06:09:44;;;;;;;4.67;1.60;;;;;;;;;;4936934;29;20180;-72
2023/09/23 06:12:48;;;;;;;1.90;1.70;;;;;;;;;;4936889;29;20223;-73
2023/09/23 06:15:52;;;;;;;4.43;2.80;;;;;;;;;;4936291;29;20184;-72
2023/09/23 06:18:57;;;;;;;4.43;3.73;;;;;;;;;;4936374;29;20185;-72
2023/09/23 06:22:01;;;;;;;5.73;3.97;;;;;;;;;;4936610;29;20236;-73
2023/09/23 06:25:05;;;;;;;8.07;5.97;;;;;;;;;;4936985;29;20529;-73
2023/09/23 06:28:09;;;;;;;7.43;4.97;;;;;;;;;;4936932;29;20188;-73
2023/09/23 06:31:14;;;;;;;4.00;3.40;;;;;;;;;;4936758;29;20176;-73
2023/09/23 06:34:18;;;;;;;3.83;3.20;;;;;;;;;;4935991;29;20180;-73
2023/09/23 06:37:22;;;;;;;6.43;5.17;;;;;;;;;;4936804;29;20184;-72
2023/09/23 06:40:26;;;;;;;4.73;2.97;;;;;;;;;;4936581;29;20211;-73
2023/09/23 06:43:30;;;;;;;6.77;2.53;;;;;;;;;;4913570;29;20184;-72
2023/09/23 06:46:34;;;;;;;2.97;1.73;;;;;;;;;;4936593;29;20180;-72
2023/09/23 06:49:39;;;;;;;2.33;1.80;;;;;;;;;;4935617;29;20184;-73
2023/09/23 06:52:43;;;;;;;2.67;1.50;;;;;;;;;;4936401;29;20211;-73
2023/09/23 06:55:47;;;;;;;1.50;1.20;;;;;;;;;;4917678;29;20181;-72
2023/09/23 06:58:51;;;;;;;2.67;1.53;;;;;;;;;;4916395;29;20184;-72
2023/09/23 07:01:55;;;;;;;3.30;1.23;;;;;;;;;;4916461;29;20236;-73
2023/09/23 07:05:00;;;;;;;2.53;1.00;;;;;;;;;;4917415;29;20188;-73
2023/09/23 07:08:04;;;;;;;2.73;1.17;;;;;;;;;;4917334;29;20188;-73
2023/09/23 07:11:12;;;;;;;1.97;0.90;;;;;;;;;;4917108;29;20181;-73
2023/09/23 07:14:16;;;;;;;4.37;1.03;;;;;;;;;;4917046;29;20185;-73
2023/09/23 07:17:21;;;;;;;7.50;1.20;;;;;;;;;;4917227;29;20189;-73
2023/09/23 07:20:26;;;;;;;2.50;0.90;;;;;;;;;;4905383;29;20185;-73
2023/09/23 07:23:31;;;;;;;1.27;0.70;;;;;;;;;;4917289;29;20526;-74
2023/09/23 07:26:35;;;;;;;1.63;0.73;;;;;;;;;;4916291;29;20184;-74
2023/09/23 07:29:39;;;;;;;2.80;1.10;;;;;;;;;;4916506;29;20184;-74
2023/09/23 07:32:43;;;;;;;1.30;0.80;;;;;;;;;;4917115;29;20212;-74
2023/09/23 07:35:47;;;;;;;1.50;0.90;;;;;;;;;;4917060;29;20185;-73
2023/09/23 07:38:51;;;;;;;1.00;0.70;;;;;;;;;;4916695;29;20192;-74
2023/09/23 07:41:55;;;;;;;1.83;1.10;;;;;;;;;;4916613;29;20228;-74
2023/09/23 07:45:00;;;;;;;2.73;1.30;;;;;;;;;;4917348;29;20189;-74
2023/09/23 07:48:04;;;;;;;1.53;0.67;;;;;;;;;;4916267;29;20181;-74
2023/09/23 07:51:09;;;;;;;1.43;0.70;;;;;;;;;;4917034;29;20621;-73
2023/09/23 07:54:14;;;;;;;1.20;0.67;;;;;;;;;;4918807;29;20185;-73
2023/09/23 07:57:17;;;;;;;1.50;0.73;;;;;;;;;;4920630;29;20185;-73
2023/09/23 08:00:22;;;;;;;1.57;1.00;;;;;;;;;;4920517;29;20193;-73
2023/09/23 08:03:27;;;;;;;5.73;1.47;;;;;;;;;;4920536;29;20216;-73
2023/09/23 08:06:31;;;;;;;3.10;0.60;;;;;;;;;;4920365;29;20636;-73
2023/09/23 08:09:36;;;;;;;2.40;1.00;;;;;;;;;;4920880;29;20614;-73
2023/09/23 08:12:40;;;;;;;3.17;1.00;;;;;;;;;;4920122;29;20228;-73
2023/09/23 08:15:45;;;;;;;1.60;0.53;;;;;;;;;;4920308;29;20185;-73
2023/09/23 08:18:50;;;;;;;2.10;0.70;;;;;;;;;;4920028;29;20184;-73
2023/09/23 08:21:54;;;;;;;2.00;0.80;;;;;;;;;;4920122;29;20232;-73
2023/09/23 08:24:58;;;;;;;2.07;0.90;;;;;;;;;;4919948;29;20538;-73
2023/09/23 08:28:02;;;;;;;1.57;0.60;;;;;;;;;;4920124;29;20530;-73
2023/09/23 08:31:07;;;;;;;2.00;0.60;;;;;;;;;;4919177;29;20185;-74
2023/09/23 08:34:11;;;;;;;1.03;0.70;;;;;;;;;;4920224;29;20649;-73
2023/09/23 08:37:15;;;;;;;1.63;0.67;;;;;;;;;;4919950;29;20181;-73
2023/09/23 08:40:20;;;;;;;3.97;0.80;;;;;;;;;;4919635;29;20185;-74
2023/09/23 08:43:36;;;;;;;1.97;0.70;;;;;;;;;;4919749;29;20217;-73
2023/09/23 08:46:41;;;;;;;1.33;1.00;;;;;;;;;;4919844;29;20185;-74
2023/09/23 08:49:47;;;;;;;1.60;1.00;;;;;;;;;;4919490;29;20181;-73
2023/09/23 08:52:52;;;;;;;1.47;0.77;;;;;;;;;;4918723;29;20224;-73
2023/09/23 08:55:56;;;;;;;0.93;0.70;;;;;;;;;;4919507;29;20185;-74
2023/09/23 08:59:00;;;;;;;2.90;0.90;;;;;;;;;;4919412;29;20181;-73
2023/09/23 09:02:05;;;;;;;2.67;0.80;;;;;;;;;;4919182;29;20232;-74
2023/09/23 09:05:09;;;;;;;3.17;0.70;;;;;;;;;;4918596;29;20189;-73
2023/09/23 09:08:14;;;;;;;1.97;1.30;;;;;;;;;;4918296;29;20534;-74
2023/09/23 09:11:23;;;;;;;1.60;0.87;;;;;;;;;;4919457;29;20518;-73
2023/09/23 09:14:27;;;;;;;1.77;1.00;;;;;;;;;;4918464;29;20177;-73
2023/09/23 09:17:35;;;;;;;1.47;0.77;;;;;;;;;;4918930;29;20565;-73
2023/09/23 09:20:40;;;;;;;2.30;0.73;;;;;;;;;;4918344;29;20613;-74
2023/09/23 09:23:44;;;;;;;1.10;0.70;;;;;;;;;;4919066;29;20181;-73
2023/09/23 09:26:48;;;;;;;5.53;0.80;;;;;;;;;;4918851;29;20189;-73
2023/09/23 09:29:54;;;;;;;2.90;0.90;;;;;;;;;;4918141;29;20526;-74
2023/09/23 09:33:01;;;;;;;4.33;0.60;;;;;;;;;;4918671;29;20216;-73
2023/09/23 09:36:07;;;;;;;2.77;0.83;;;;;;;;;;4918732;29;20189;-74
2023/09/23 09:39:16;;;;;;;1.87;0.67;;;;;;;;;;4919146;29;20189;-74
2023/09/23 09:42:26;;;;;;;1.93;0.90;;;;;;;;;;4918299;29;20229;-74
2023/09/23 09:45:40;;;;;;;2.40;0.80;;;;;;;;;;4918382;29;20189;-73
2023/09/23 09:48:47;;;;;;;1.30;0.80;;;;;;;;;;4918566;29;20177;-73
2023/09/23 09:51:52;;;;;;;1.17;0.60;;;;;;;;;;4918615;29;20216;-73
2023/09/23 09:54:59;;;;;;;1.30;0.60;;;;;;;;;;4918008;29;20185;-74
2023/09/23 09:58:03;;;;;;;1.53;0.93;;;;;;;;;;4917610;29;20530;-73
2023/09/23 10:01:12;;;;;;;2.20;0.80;;;;;;;;;;4917308;29;20634;-73
2023/09/23 10:04:20;;;;;;;2.30;0.80;;;;;;;;;;4918642;29;20181;-74
2023/09/23 10:07:48;;;;;;;3.67;0.87;;;;;;;;;;4917425;29;20185;-74
2023/09/23 10:11:04;;;;;;;4.27;0.93;;;;;;;;;;4918112;29;20185;-73
2023/09/23 10:14:17;;;;;;;0.73;0.60;;;;;;;;;;4918071;29;20535;-73
2023/09/23 10:17:33;;;;;;;1.30;0.80;;;;;;;;;;4917168;29;20177;-73
2023/09/23 10:20:50;;;;;;;2.43;0.80;;;;;;;;;;4918033;29;20185;-74
2023/09/23 10:23:55;;;;;;;2.63;0.70;;;;;;;;;;4918275;29;20181;-74
2023/09/23 10:27:05;;;;;;;3.00;0.90;;;;;;;;;;4917835;29;20185;-74
2023/09/23 10:30:10;;;;;;;1.33;0.60;;;;;;;;;;4917062;29;20181;-74
2023/09/23 10:33:14;;;;;;;1.80;0.73;;;;;;;;;;4917754;29;20217;-74
2023/09/23 10:36:20;;;;;;;2.27;0.90;;;;;;;;;;4917457;29;20522;-74
2023/09/23 10:39:25;;;;;;;2.00;0.70;;;;;;;;;;4917951;29;20181;-74
2023/09/23 10:42:33;;;;;;;3.60;0.73;;;;;;;;;;4917467;29;20228;-74
2023/09/23 10:45:37;;;;;;;1.83;0.80;;;;;;;;;;4917866;29;20180;-74
2023/09/23 10:48:41;;;;;;;3.73;1.00;;;;;;;;;;4916825;29;20189;-74
2023/09/23 10:51:46;;;;;;;1.67;0.90;;;;;;;;;;4917768;29;20557;-74
2023/09/23 10:54:51;;;;;;;1.30;0.80;;;;;;;;;;4917216;29;20176;-74
2023/09/23 10:57:55;;;;;;;2.53;0.70;;;;;;;;;;4918010;29;20514;-74
2023/09/23 11:00:59;;;;;;;3.40;0.73;;;;;;;;;;4916667;29;20525;-74
2023/09/23 11:04:04;;;;;;;1.70;0.80;;;;;;;;;;4917621;29;20172;-73
2023/09/23 11:07:08;;;;;;;2.33;0.90;;;;;;;;;;4917273;29;20177;-74
2023/09/23 11:10:12;;;;;;;3.43;0.60;;;;;;;;;;4917264;29;20189;-75
2023/09/23 11:13:18;;;;;;;0.93;0.70;;;;;;;;;;4916953;29;20577;-74
2023/09/23 11:16:23;;;;;;;0.97;0.70;;;;;;;;;;4917058;29;20181;-74
2023/09/23 11:19:27;;;;;;;1.83;0.87;;;;;;;;;;4917315;29;20181;-74
2023/09/23 11:22:32;;;;;;;1.27;0.77;;;;;;;;;;4916880;29;20229;-74
2023/09/23 11:25:37;;;;;;;1.33;0.70;;;;;;;;;;4916866;29;20185;-74
2023/09/23 11:28:42;;;;;;;4.43;0.87;;;;;;;;;;4916982;29;20181;-74
2023/09/23 11:31:46;;;;;;;1.57;0.70;;;;;;;;;;4920298;29;20216;-74
2023/09/23 11:34:52;;;;;;;2.27;0.60;;;;;;;;;;4921452;29;20517;-74
2023/09/23 11:37:56;;;;;;;1.80;0.70;;;;;;;;;;4921382;29;20180;-74
2023/09/23 11:41:00;;;;;;;2.20;0.90;;;;;;;;;;4919920;29;20184;-74
2023/09/23 11:44:04;;;;;;;1.00;0.60;;;;;;;;;;4920445;29;20177;-74
2023/09/23 11:47:10;;;;;;;1.10;0.83;;;;;;;;;;4921074;29;20185;-74
2023/09/23 11:50:15;;;;;;;1.90;0.60;;;;;;;;;;4920566;29;20189;-74
2023/09/23 11:53:19;;;;;;;1.67;0.80;;;;;;;;;;4920752;29;20217;-74
2023/09/23 11:56:23;;;;;;;1.57;0.93;;;;;;;;;;4920428;29;20185;-74
2023/09/23 11:59:27;;;;;;;3.00;0.83;;;;;;;;;;4920398;29;20185;-74
2023/09/23 12:02:32;;;;;;;1.80;0.70;;;;;;;;;;4920440;29;20570;-74
2023/09/23 12:05:36;;;;;;;1.53;0.80;;;;;;;;;;4920804;29;20621;-74
2023/09/23 12:08:40;;;;;;;1.43;0.80;;;;;;;;;;4920501;29;20185;-74
2023/09/23 12:11:44;;;;;;;2.73;0.80;;;;;;;;;;4919922;29;20220;-74
2023/09/23 12:14:50;;;;;;;0.87;0.60;;;;;;;;;;4920591;29;20206;-74
2023/09/23 12:17:54;;;;;;;3.07;0.73;;;;;;;;;;4919900;29;20185;-73
2023/09/23 12:20:58;;;;;;;1.53;0.80;;;;;;;;;;4920230;29;20189;-74
2023/09/23 12:24:03;;;;;;;0.90;0.70;;;;;;;;;;4920448;29;20217;-74
2023/09/23 12:27:08;;;;;;;2.10;0.73;;;;;;;;;;4919328;29;20189;-74
2023/09/23 12:30:17;;;;;;;1.73;0.70;;;;;;;;;;4920116;29;20629;-74
2023/09/23 12:33:21;;;;;;;1.83;0.90;;;;;;;;;;4919794;29;20554;-74
2023/09/23 12:36:25;;;;;;;0.97;0.70;;;;;;;;;;4919151;29;20181;-74
2023/09/23 12:39:29;;;;;;;1.20;0.60;;;;;;;;;;4919210;29;20531;-74
2023/09/23 12:42:33;;;;;;;3.30;0.90;;;;;;;;;;4919648;29;20574;-74
2023/09/23 12:45:40;;;;;;;1.70;0.80;;;;;;;;;;4919845;29;20188;-74
2023/09/23 12:48:44;;;;;;;1.60;0.63;;;;;;;;;;4919352;29;20189;-74
2023/09/23 12:51:48;;;;;;;2.80;0.80;;;;;;;;;;4919427;29;20228;-74
2023/09/23 12:54:53;;;;;;;1.90;0.87;;;;;;;;;;4918969;29;20636;-74
2023/09/23 12:57:57;;;;;;;3.70;0.77;;;;;;;;;;4919331;29;20189;-74
2023/09/23 13:01:02;;;;;;;1.40;0.70;;;;;;;;;;4920049;29;20185;-74
2023/09/23 13:04:06;;;;;;;1.00;0.60;;;;;;;;;;4918963;29;20213;-74
2023/09/23 13:07:10;;;;;;;3.00;0.63;;;;;;;;;;4919232;29;20185;-74
2023/09/23 13:10:14;;;;;;;1.40;0.70;;;;;;;;;;4919193;29;20188;-74
2023/09/23 13:13:18;;;;;;;1.50;0.87;;;;;;;;;;4919113;29;20224;-74
2023/09/23 13:16:22;;;;;;;2.93;1.03;;;;;;;;;;4919311;29;20637;-74
2023/09/23 13:19:26;;;;;;;1.60;0.90;;;;;;;;;;4919087;29;20185;-74
2023/09/23 13:22:31;;;;;;;2.83;0.80;;;;;;;;;;4919182;29;20232;-74
2023/09/23 13:25:35;;;;;;;2.20;0.67;;;;;;;;;;4918311;29;20538;-74
2023/09/23 13:28:39;;;;;;;1.43;0.70;;;;;;;;;;4919036;29;20189;-73
2023/09/23 13:31:43;;;;;;;3.37;0.80;;;;;;;;;;4918733;29;20570;-74
2023/09/23 13:34:48;;;;;;;3.03;0.87;;;;;;;;;;4919131;29;20181;-74
2023/09/23 13:37:52;;;;;;;2.17;0.80;;;;;;;;;;4918622;29;20189;-74
2023/09/23 13:40:57;;;;;;;2.67;0.87;;;;;;;;;;4918787;29;20180;-75
2023/09/23 13:44:00;;;;;;;1.87;0.80;;;;;;;;;;4917987;29;20216;-74
2023/09/23 13:47:05;;;;;;;4.20;0.70;;;;;;;;;;4918818;29;20185;-74
2023/09/23 13:50:09;;;;;;;1.13;0.70;;;;;;;;;;4918531;29;20193;-74
2023/09/23 13:53:14;;;;;;;2.13;0.80;;;;;;;;;;4918475;29;20558;-74
2023/09/23 13:56:18;;;;;;;1.83;0.57;;;;;;;;;;4918774;29;20641;-74
2023/09/23 13:59:22;;;;;;;1.10;0.70;;;;;;;;;;4918530;29;20185;-74
2023/09/23 14:02:26;;;;;;;3.27;0.80;;;;;;;;;;4918403;29;20696;-74
2023/09/23 14:05:30;;;;;;;1.87;0.77;;;;;;;;;;4918466;29;20185;-74
2023/09/23 14:08:34;;;;;;;1.23;0.60;;;;;;;;;;4918086;29;20189;-74
2023/09/23 14:11:38;;;;;;;1.67;0.70;;;;;;;;;;4917394;29;20225;-74
2023/09/23 14:14:42;;;;;;;1.33;0.80;;;;;;;;;;4917437;29;20528;-74
2023/09/23 14:17:47;;;;;;;1.37;0.80;;;;;;;;;;4917639;29;20181;-74
2023/09/23 14:20:52;;;;;;;1.37;0.80;;;;;;;;;;4918146;29;20526;-73
2023/09/23 14:23:56;;;;;;;2.10;1.07;;;;;;;;;;4918279;29;20653;-74
2023/09/23 14:27:00;;;;;;;1.30;0.77;;;;;;;;;;4917841;29;20185;-74
2023/09/23 14:30:08;;;;;;;2.33;0.83;;;;;;;;;;4917788;29;20180;-74
2023/09/23 14:33:12;;;;;;;6.60;0.93;;;;;;;;;;4905903;29;20697;-74
2023/09/23 14:36:16;;;;;;;1.50;0.70;;;;;;;;;;4917077;29;20197;-75
2023/09/23 14:39:21;;;;;;;2.30;0.70;;;;;;;;;;4917851;29;20189;-75
2023/09/23 14:42:25;;;;;;;3.67;1.00;;;;;;;;;;4917380;29;20225;-74
2023/09/23 14:45:30;;;;;;;1.60;0.70;;;;;;;;;;4917482;29;20181;-74
2023/09/23 14:48:34;;;;;;;2.53;0.90;;;;;;;;;;4917394;29;20185;-74
2023/09/23 14:51:38;;;;;;;2.30;0.80;;;;;;;;;;4916469;29;20220;-75
2023/09/23 14:54:41;;;;;;;2.00;1.00;;;;;;;;;;4916539;29;20185;-75
2023/09/23 14:57:47;;;;;;;5.23;0.70;;;;;;;;;;4916790;29;20193;-75
2023/09/23 15:00:52;;;;;;;2.17;0.83;;;;;;;;;;4917483;29;20185;-73
2023/09/23 15:03:56;;;;;;;2.03;0.80;;;;;;;;;;4916556;29;20217;-75
2023/09/23 15:07:01;;;;;;;2.37;0.97;;;;;;;;;;4935970;29;20184;-74
2023/09/23 15:10:06;;;;;;;2.50;0.90;;;;;;;;;;4936361;29;20180;-74
2023/09/23 15:13:10;;;;;;;1.93;0.80;;;;;;;;;;4935041;29;20224;-75
2023/09/23 15:16:15;;;;;;;3.00;1.07;;;;;;;;;;4936207;29;20188;-74
2023/09/23 15:19:19;;;;;;;1.90;0.87;;;;;;;;;;4935896;29;20180;-74
2023/09/23 15:22:23;;;;;;;4.17;0.97;;;;;;;;;;4934985;29;20223;-74
2023/09/23 15:25:27;;;;;;;2.00;0.83;;;;;;;;;;4935014;29;20172;-74
2023/09/23 15:28:34;;;;;;;1.43;0.50;;;;;;;;;;4936200;29;20624;-74
2023/09/23 15:31:39;;;;;;;3.50;1.00;;;;;;;;;;4935014;29;20219;-75
2023/09/23 15:34:43;;;;;;;2.53;0.80;;;;;;;;;;4936347;29;20184;-75
2023/09/23 15:37:47;;;;;;;1.60;0.90;;;;;;;;;;4936204;29;20557;-74
2023/09/23 15:40:51;;;;;;;1.97;1.00;;;;;;;;;;4935886;29;20184;-74
2023/09/23 15:43:56;;;;;;;2.17;0.90;;;;;;;;;;4935543;29;20207;-74
2023/09/23 15:47:00;;;;;;;1.40;0.80;;;;;;;;;;4935698;29;20192;-74
2023/09/23 15:50:06;;;;;;;7.67;1.60;;;;;;;;;;4935970;29;20184;-75
2023/09/23 15:53:10;;;;;;;4.13;1.33;;;;;;;;;;4934769;29;20216;-74
2023/09/23 15:56:14;;;;;;;2.27;1.10;;;;;;;;;;4935645;29;20188;-75
2023/09/23 15:59:18;;;;;;;4.20;1.17;;;;;;;;;;4935841;29;20188;-75
2023/09/23 16:02:22;;;;;;;1.93;1.17;;;;;;;;;;4935770;29;20568;-73
2023/09/23 16:05:26;;;;;;;1.67;0.90;;;;;;;;;;4935568;29;20184;-74
2023/09/23 16:08:30;;;;;;;4.90;1.10;;;;;;;;;;4935806;29;20184;-74
2023/09/23 16:11:34;;;;;;;2.77;1.00;;;;;;;;;;4935387;29;20224;-74
2023/09/23 16:14:38;;;;;;;2.23;0.90;;;;;;;;;;4936735;29;20617;-73
2023/09/23 16:17:43;;;;;;;3.30;0.80;;;;;;;;;;4939350;29;20184;-74
2023/09/23 16:20:49;;;;;;;4.07;1.20;;;;;;;;;;4939323;29;20624;-74
2023/09/23 16:23:54;;;;;;;2.47;0.83;;;;;;;;;;4938138;29;20215;-74
2023/09/23 16:26:57;;;;;;;2.13;0.73;;;;;;;;;;4938198;29;20180;-74
2023/09/23 16:30:02;;;;;;;3.33;0.97;;;;;;;;;;4938861;29;20185;-74
2023/09/23 16:33:07;;;;;;;1.43;0.80;;;;;;;;;;4938315;29;20224;-74
2023/09/23 16:36:12;;;;;;;1.40;0.90;;;;;;;;;;4938879;29;20188;-74
2023/09/23 16:39:16;;;;;;;2.87;1.00;;;;;;;;;;4938952;29;20189;-74
2023/09/23 16:42:20;;;;;;;3.53;0.70;;;;;;;;;;4938618;29;20695;-74
2023/09/23 16:45:24;;;;;;;5.40;1.03;;;;;;;;;;4937834;29;20212;-73
2023/09/23 16:48:28;;;;;;;2.80;1.10;;;;;;;;;;4938865;29;20184;-74
2023/09/23 16:51:32;;;;;;;1.87;0.70;;;;;;;;;;4938431;29;20224;-74
2023/09/23 16:54:38;;;;;;;1.87;0.77;;;;;;;;;;4938627;29;20180;-74
2023/09/23 16:57:42;;;;;;;2.57;0.87;;;;;;;;;;4938302;29;20180;-73
2023/09/23 17:00:46;;;;;;;2.37;1.03;;;;;;;;;;4938338;29;20188;-74
2023/09/23 17:03:51;;;;;;;1.87;1.27;;;;;;;;;;4937488;29;20208;-73
2023/09/23 17:06:55;;;;;;;3.60;1.03;;;;;;;;;;4938744;29;20188;-74
2023/09/23 17:09:59;;;;;;;2.03;1.10;;;;;;;;;;4937616;29;20184;-73
2023/09/23 17:13:03;;;;;;;2.43;1.00;;;;;;;;;;4938275;29;20232;-74
2023/09/23 17:16:08;;;;;;;4.13;1.30;;;;;;;;;;4937283;29;20188;-73
2023/09/23 17:19:13;;;;;;;2.27;0.80;;;;;;;;;;4938268;29;20189;-74
2023/09/23 17:22:17;;;;;;;1.80;0.73;;;;;;;;;;4937437;29;20676;-73
2023/09/23 17:25:22;;;;;;;1.77;1.10;;;;;;;;;;4937099;29;20215;-74
2023/09/23 17:28:27;;;;;;;2.50;1.00;;;;;;;;;;4937802;29;20184;-74
2023/09/23 17:31:32;;;;;;;1.20;1.00;;;;;;;;;;4936899;29;20220;-74
2023/09/23 17:34:37;;;;;;;2.00;1.00;;;;;;;;;;4937626;29;20189;-74
2023/09/23 17:37:41;;;;;;;5.50;1.43;;;;;;;;;;4937850;29;20184;-74
2023/09/23 17:40:48;;;;;;;3.83;1.20;;;;;;;;;;4937662;29;20184;-74
2023/09/23 17:43:52;;;;;;;2.23;1.20;;;;;;;;;;4937933;29;20212;-74
2023/09/23 17:46:56;;;;;;;1.57;1.10;;;;;;;;;;4936885;29;20188;-73
2023/09/23 17:50:00;;;;;;;3.53;1.00;;;;;;;;;;4936659;29;20183;-74
2023/09/23 17:53:04;;;;;;;1.67;0.90;;;;;;;;;;4937439;29;20219;-74
2023/09/23 17:56:08;;;;;;;1.77;1.13;;;;;;;;;;4937432;29;20185;-74
2023/09/23 17:59:12;;;;;;;2.00;1.23;;;;;;;;;;4937197;29;20184;-74
2023/09/23 18:02:16;;;;;;;1.83;1.10;;;;;;;;;;4937105;29;20215;-74
2023/09/23 18:05:20;;;;;;;4.87;1.50;;;;;;;;;;4925565;29;20215;-74
2023/09/23 18:08:25;;;;;;;1.30;0.87;;;;;;;;;;4937382;29;20188;-74
2023/09/23 18:11:29;;;;;;;2.50;1.10;;;;;;;;;;4936257;29;20224;-73
2023/09/23 18:14:33;;;;;;;1.50;1.00;;;;;;;;;;4936413;29;20628;-73
2023/09/23 18:17:37;;;;;;;2.47;1.00;;;;;;;;;;4925198;29;20180;-73
2023/09/23 18:20:41;;;;;;;1.47;0.77;;;;;;;;;;4936825;29;20631;-74
2023/09/23 18:23:45;;;;;;;1.80;0.70;;;;;;;;;;4936288;29;20192;-74
2023/09/23 18:26:49;;;;;;;2.07;0.97;;;;;;;;;;4936799;29;20180;-75
2023/09/23 18:29:53;;;;;;;3.37;0.97;;;;;;;;;;4936140;29;20180;-75